createdAt,value
2017-09-03T00:00:03.891Z,1020.93
2017-09-03T00:01:25.397Z,1020.91
2017-09-03T00:02:47.594Z,1020.92
2017-09-03T00:04:09.891Z,1020.9
2017-09-03T00:05:31.740Z,1020.92
2017-09-03T00:06:54.292Z,1020.9
2017-09-03T00:08:16.423Z,1020.93
2017-09-03T00:09:38.339Z,1020.94
2017-09-03T00:11:00.479Z,1020.9
2017-09-03T00:12:22.632Z,1020.86
2017-09-03T00:13:44.773Z,1020.81
2017-09-03T00:15:06.633Z,1020.74
2017-09-03T00:16:28.464Z,1020.76
2017-09-03T00:17:49.968Z,1020.73
2017-09-03T00:19:11.503Z,1020.69
2017-09-03T00:20:33.652Z,1020.71
2017-09-03T00:21:56.133Z,1020.76
2017-09-03T00:23:18.360Z,1020.71
2017-09-03T00:24:40.494Z,1020.73
2017-09-03T00:26:02.963Z,1020.72
2017-09-03T00:27:24.135Z,1020.7
2017-09-03T00:28:45.954Z,1020.72
2017-09-03T00:30:08.444Z,1020.67
2017-09-03T00:31:30.594Z,1020.66
2017-09-03T00:32:52.567Z,1020.67
2017-09-03T00:34:14.394Z,1020.7
2017-09-03T00:35:36.603Z,1020.72
2017-09-03T00:36:58.774Z,1020.69
2017-09-03T00:38:20.614Z,1020.71
2017-09-03T00:39:42.124Z,1020.73
2017-09-03T00:41:04.262Z,1020.69
2017-09-03T00:42:26.095Z,1020.73
2017-09-03T00:43:47.914Z,1020.69
2017-09-03T00:45:10.384Z,1020.67
2017-09-03T00:46:32.193Z,1020.62
2017-09-03T00:47:54.413Z,1020.62
2017-09-03T00:49:16.574Z,1020.6
2017-09-03T00:50:39.091Z,1020.58
2017-09-03T00:52:01.924Z,1020.56
2017-09-03T00:53:24.208Z,1020.55
2017-09-03T00:54:46.353Z,1020.56
2017-09-03T00:56:07.306Z,1020.53
2017-09-03T00:57:29.389Z,1020.54
2017-09-03T00:58:50.999Z,1020.56
2017-09-03T01:00:13.473Z,1020.48
2017-09-03T01:01:35.721Z,1020.52
2017-09-03T01:02:57.796Z,1020.49
2017-09-03T01:04:19.804Z,1020.46
2017-09-03T01:05:41.969Z,1020.47
2017-09-03T01:07:03.791Z,1020.47
2017-09-03T01:08:26.294Z,1020.46
2017-09-03T01:09:48.793Z,1020.41
2017-09-03T01:11:11.353Z,1020.45
2017-09-03T01:12:32.515Z,1020.39
2017-09-03T01:13:54.927Z,1020.4
2017-09-03T01:15:17.404Z,1020.41
2017-09-03T01:16:39.932Z,1020.4
2017-09-03T01:18:02.093Z,1020.42
2017-09-03T01:19:23.943Z,1020.42
2017-09-03T01:20:46.206Z,1020.4
2017-09-03T01:22:08.353Z,1020.37
2017-09-03T01:23:30.180Z,1020.37
2017-09-03T01:24:52.635Z,1020.37
2017-09-03T01:26:14.468Z,1020.37
2017-09-03T01:27:36.464Z,1020.38
2017-09-03T01:28:57.955Z,1020.34
2017-09-03T01:30:20.042Z,1020.36
2017-09-03T01:31:41.555Z,1020.3
2017-09-03T01:33:03.063Z,1020.32
2017-09-03T01:34:25.203Z,1020.31
2017-09-03T01:35:47.703Z,1020.26
2017-09-03T01:37:09.217Z,1020.22
2017-09-03T01:38:31.693Z,1020.19
2017-09-03T01:39:54.209Z,1020.12
2017-09-03T01:41:15.997Z,1020.13
2017-09-03T01:42:37.493Z,1020.12
2017-09-03T01:43:59.665Z,1020.14
2017-09-03T01:45:21.604Z,1020.13
2017-09-03T01:46:43.732Z,1020.13
2017-09-03T01:48:05.552Z,1020.12
2017-09-03T01:49:27.383Z,1020.09
2017-09-03T01:50:49.528Z,1020.11
2017-09-03T01:52:12.033Z,1020.13
2017-09-03T01:53:33.923Z,1020.1
2017-09-03T01:54:56.503Z,1020.1
2017-09-03T01:56:18.967Z,1020.08
2017-09-03T01:57:41.534Z,1020.05
2017-09-03T01:59:03.685Z,1020.03
2017-09-03T02:00:25.832Z,1020.05
2017-09-03T02:01:47.673Z,1020.05
2017-09-03T02:03:09.673Z,1020.08
2017-09-03T02:04:31.513Z,1020.05
2017-09-03T02:05:53.331Z,1020.04
2017-09-03T02:07:14.494Z,1020.06
2017-09-03T02:08:36.982Z,1020.09
2017-09-03T02:09:58.812Z,1020.06
2017-09-03T02:11:20.633Z,1020.11
2017-09-03T02:12:42.882Z,1020.1
2017-09-03T02:14:05.358Z,1020.08
2017-09-03T02:15:26.873Z,1020.11
2017-09-03T02:16:48.709Z,1020.14
2017-09-03T02:18:10.523Z,1020.12
2017-09-03T02:19:32.718Z,1020.13
2017-09-03T02:20:54.861Z,1020.14
2017-09-03T02:22:17.449Z,1020.15
2017-09-03T02:23:39.673Z,1020.14
2017-09-03T02:25:01.736Z,1020.1
2017-09-03T02:26:23.877Z,1020.11
2017-09-03T02:27:45.707Z,1020.06
2017-09-03T02:29:07.193Z,1020.11
2017-09-03T02:30:29.382Z,1020.03
2017-09-03T02:31:50.555Z,1020.04
2017-09-03T02:33:12.701Z,1020.03
2017-09-03T02:34:35.170Z,1020.05
2017-09-03T02:35:57.474Z,1020.02
2017-09-03T02:37:18.984Z,1020.06
2017-09-03T02:38:40.815Z,1020.04
2017-09-03T02:40:02.991Z,1020.04
2017-09-03T02:41:25.430Z,1020.05
2017-09-03T02:42:47.252Z,1020.05
2017-09-03T02:44:09.142Z,1020.05
2017-09-03T02:45:30.962Z,1020.04
2017-09-03T02:46:53.450Z,1020.06
2017-09-03T02:48:15.273Z,1020.07
2017-09-03T02:49:36.782Z,1020.08
2017-09-03T02:50:58.726Z,1020.06
2017-09-03T02:52:20.904Z,1020.1
2017-09-03T02:53:43.041Z,1020.1
2017-09-03T02:55:04.861Z,1020.12
2017-09-03T02:56:26.992Z,1020.16
2017-09-03T02:57:48.875Z,1020.15
2017-09-03T02:59:10.763Z,1020.08
2017-09-03T03:00:32.597Z,1020.1
2017-09-03T03:01:54.762Z,1020.1
2017-09-03T03:03:16.732Z,1020.03
2017-09-03T03:04:38.545Z,1020.06
2017-09-03T03:06:00.853Z,1020.06
2017-09-03T03:07:23.013Z,1020.08
2017-09-03T03:08:45.502Z,1020.06
2017-09-03T03:10:07.001Z,1020.05
2017-09-03T03:11:28.870Z,1020.05
2017-09-03T03:12:50.391Z,1020.03
2017-09-03T03:14:12.165Z,1019.98
2017-09-03T03:15:33.992Z,1019.96
2017-09-03T03:16:55.801Z,1020
2017-09-03T03:18:18.284Z,1019.96
2017-09-03T03:19:40.452Z,1019.96
2017-09-03T03:21:02.778Z,1019.97
2017-09-03T03:22:24.601Z,1019.99
2017-09-03T03:23:47.192Z,1019.98
2017-09-03T03:25:09.323Z,1019.95
2017-09-03T03:26:31.174Z,1019.97
2017-09-03T03:27:53.317Z,1019.97
2017-09-03T03:29:15.777Z,1019.95
2017-09-03T03:30:38.261Z,1019.94
2017-09-03T03:31:59.763Z,1019.93
2017-09-03T03:33:21.592Z,1019.9
2017-09-03T03:34:43.747Z,1019.92
2017-09-03T03:36:05.622Z,1019.95
2017-09-03T03:37:26.794Z,1019.97
2017-09-03T03:38:48.603Z,1019.96
2017-09-03T03:40:10.421Z,1019.95
2017-09-03T03:41:32.229Z,1019.94
2017-09-03T03:42:54.048Z,1019.86
2017-09-03T03:44:15.873Z,1019.9
2017-09-03T03:45:37.702Z,1019.84
2017-09-03T03:46:59.914Z,1019.87
2017-09-03T03:48:22.051Z,1019.9
2017-09-03T03:49:44.296Z,1019.84
2017-09-03T03:51:05.930Z,1019.83
2017-09-03T03:52:28.432Z,1019.84
2017-09-03T03:53:50.575Z,1019.82
2017-09-03T03:55:12.733Z,1019.81
2017-09-03T03:56:34.877Z,1019.78
2017-09-03T03:57:57.375Z,1019.82
2017-09-03T03:59:19.222Z,1019.78
2017-09-03T04:00:41.046Z,1019.77
2017-09-03T04:02:03.197Z,1019.74
2017-09-03T04:03:25.266Z,1019.77
2017-09-03T04:04:47.863Z,1019.73
2017-09-03T04:06:10.015Z,1019.78
2017-09-03T04:07:32.581Z,1019.77
2017-09-03T04:08:54.638Z,1019.75
2017-09-03T04:10:15.812Z,1019.8
2017-09-03T04:11:37.700Z,1019.78
2017-09-03T04:12:59.933Z,1019.77
2017-09-03T04:14:21.805Z,1019.74
2017-09-03T04:15:43.947Z,1019.71
2017-09-03T04:17:05.772Z,1019.7
2017-09-03T04:18:27.934Z,1019.64
2017-09-03T04:19:50.433Z,1019.62
2017-09-03T04:21:11.605Z,1019.66
2017-09-03T04:22:33.751Z,1019.67
2017-09-03T04:23:54.934Z,1019.67
2017-09-03T04:25:17.153Z,1019.7
2017-09-03T04:26:39.304Z,1019.7
2017-09-03T04:28:01.134Z,1019.68
2017-09-03T04:29:23.263Z,1019.63
2017-09-03T04:30:45.702Z,1019.72
2017-09-03T04:32:07.851Z,1019.66
2017-09-03T04:33:30.304Z,1019.66
2017-09-03T04:34:52.767Z,1019.69
2017-09-03T04:36:15.245Z,1019.68
2017-09-03T04:37:36.788Z,1019.67
2017-09-03T04:38:58.651Z,1019.65
2017-09-03T04:40:20.162Z,1019.68
2017-09-03T04:41:42.259Z,1019.68
2017-09-03T04:43:04.414Z,1019.69
2017-09-03T04:44:26.259Z,1019.63
2017-09-03T04:45:48.205Z,1019.65
2017-09-03T04:47:10.272Z,1019.63
2017-09-03T04:48:31.962Z,1019.6
2017-09-03T04:49:53.163Z,1019.58
2017-09-03T04:51:14.656Z,1019.57
2017-09-03T04:52:37.412Z,1019.56
2017-09-03T04:53:58.918Z,1019.56
2017-09-03T04:55:20.425Z,1019.54
2017-09-03T04:56:42.551Z,1019.52
2017-09-03T04:58:05.044Z,1019.55
2017-09-03T04:59:27.199Z,1019.54
2017-09-03T05:00:49.352Z,1019.6
2017-09-03T05:02:10.523Z,1019.56
2017-09-03T05:03:33.022Z,1019.6
2017-09-03T05:04:54.563Z,1019.59
2017-09-03T05:06:16.378Z,1019.61
2017-09-03T05:07:38.523Z,1019.62
2017-09-03T05:09:00.923Z,1019.63
2017-09-03T05:10:22.815Z,1019.61
2017-09-03T05:11:44.963Z,1019.62
2017-09-03T05:13:06.814Z,1019.65
2017-09-03T05:14:29.005Z,1019.66
2017-09-03T05:15:51.273Z,1019.65
2017-09-03T05:17:13.413Z,1019.69
2017-09-03T05:18:34.911Z,1019.7
2017-09-03T05:19:56.772Z,1019.71
2017-09-03T05:21:18.919Z,1019.73
2017-09-03T05:22:41.182Z,1019.68
2017-09-03T05:24:02.369Z,1019.71
2017-09-03T05:25:25.104Z,1019.72
2017-09-03T05:26:47.293Z,1019.7
2017-09-03T05:28:09.454Z,1019.72
2017-09-03T05:29:31.374Z,1019.68
2017-09-03T05:30:53.229Z,1019.65
2017-09-03T05:32:15.383Z,1019.67
2017-09-03T05:33:36.883Z,1019.68
2017-09-03T05:34:59.045Z,1019.71
2017-09-03T05:36:21.574Z,1019.74
2017-09-03T05:37:44.053Z,1019.79
2017-09-03T05:39:06.194Z,1019.77
2017-09-03T05:40:28.701Z,1019.81
2017-09-03T05:41:50.974Z,1019.79
2017-09-03T05:43:13.100Z,1019.83
2017-09-03T05:44:33.963Z,1019.82
2017-09-03T05:45:55.795Z,1019.89
2017-09-03T05:47:17.555Z,1019.85
2017-09-03T05:48:39.682Z,1019.88
2017-09-03T05:50:01.520Z,1019.91
2017-09-03T05:51:22.705Z,1019.89
2017-09-03T05:52:44.585Z,1019.91
2017-09-03T05:54:06.740Z,1019.89
2017-09-03T05:55:28.903Z,1019.84
2017-09-03T05:56:50.786Z,1019.75
2017-09-03T05:58:12.969Z,1019.82
2017-09-03T05:59:35.239Z,1019.92
2017-09-03T06:00:57.404Z,1019.88
2017-09-03T06:02:19.662Z,1019.93
2017-09-03T06:03:42.380Z,1019.96
2017-09-03T06:05:04.348Z,1019.95
2017-09-03T06:06:26.813Z,1019.94
2017-09-03T06:07:48.104Z,1020.03
2017-09-03T06:09:10.624Z,1019.98
2017-09-03T06:10:32.915Z,1020.05
2017-09-03T06:11:55.145Z,1020.06
2017-09-03T06:13:17.289Z,1020.04
2017-09-03T06:14:40.120Z,1020
2017-09-03T06:16:01.966Z,1020.06
2017-09-03T06:17:24.120Z,1020.05
2017-09-03T06:18:46.386Z,1020.07
2017-09-03T06:20:09.128Z,1020.06
2017-09-03T06:21:31.009Z,1020.07
2017-09-03T06:22:52.833Z,1020.08
2017-09-03T06:24:14.783Z,1020.09
2017-09-03T06:25:36.923Z,1020.08
2017-09-03T06:26:58.184Z,1020.14
2017-09-03T06:28:19.869Z,1020.11
2017-09-03T06:29:42.343Z,1020.13
2017-09-03T06:31:04.540Z,1020.14
2017-09-03T06:32:27.020Z,1020.06
2017-09-03T06:33:49.548Z,1020.11
2017-09-03T06:35:11.383Z,1020
2017-09-03T06:36:33.905Z,1020.08
2017-09-03T06:37:56.087Z,1020.09
2017-09-03T06:39:18.273Z,1020.12
2017-09-03T06:40:39.798Z,1020.12
2017-09-03T06:42:01.994Z,1020.1
2017-09-03T06:43:23.540Z,1020.15
2017-09-03T06:44:45.083Z,1020.14
2017-09-03T06:46:07.602Z,1020.15
2017-09-03T06:47:29.782Z,1020.14
2017-09-03T06:48:51.993Z,1020.14
2017-09-03T06:50:13.624Z,1020.11
2017-09-03T06:51:35.460Z,1020.16
2017-09-03T06:52:58.004Z,1020.18
2017-09-03T06:54:20.187Z,1020.15
2017-09-03T06:55:42.034Z,1020.22
2017-09-03T06:57:04.543Z,1020.18
2017-09-03T06:58:26.687Z,1020.2
2017-09-03T06:59:48.883Z,1020.23
2017-09-03T07:01:11.063Z,1020.19
2017-09-03T07:02:33.229Z,1020.21
2017-09-03T07:03:55.337Z,1020.22
2017-09-03T07:05:17.744Z,1020.22
2017-09-03T07:06:39.584Z,1020.18
2017-09-03T07:08:01.760Z,1020.2
2017-09-03T07:09:24.297Z,1020.17
2017-09-03T07:10:46.182Z,1020.22
2017-09-03T07:12:08.816Z,1020.23
2017-09-03T07:13:30.113Z,1020.2
2017-09-03T07:14:52.261Z,1020.23
2017-09-03T07:16:14.107Z,1020.23
2017-09-03T07:17:35.948Z,1020.16
2017-09-03T07:18:57.839Z,1020.18
2017-09-03T07:20:20.733Z,1020.18
2017-09-03T07:21:43.043Z,1020.23
2017-09-03T07:23:03.946Z,1020.22
2017-09-03T07:24:25.786Z,1020.2
2017-09-03T07:25:48.038Z,1020.23
2017-09-03T07:27:10.043Z,1020.24
2017-09-03T07:28:31.252Z,1020.21
2017-09-03T07:29:53.226Z,1020.15
2017-09-03T07:31:15.423Z,1020.17
2017-09-03T07:32:36.964Z,1020.17
2017-09-03T07:33:58.801Z,1020.18
2017-09-03T07:35:20.334Z,1020.22
2017-09-03T07:36:43.175Z,1020.21
2017-09-03T07:38:05.489Z,1020.22
2017-09-03T07:39:28.006Z,1020.18
2017-09-03T07:40:49.540Z,1020.2
2017-09-03T07:42:11.745Z,1020.21
2017-09-03T07:43:33.912Z,1020.2
2017-09-03T07:44:56.413Z,1020.13
2017-09-03T07:46:18.276Z,1020.06
2017-09-03T07:47:40.796Z,1019.98
2017-09-03T07:49:02.316Z,1019.91
2017-09-03T07:50:24.495Z,1019.92
2017-09-03T07:51:46.383Z,1019.92
2017-09-03T07:53:08.640Z,1019.94
2017-09-03T07:54:30.905Z,1019.97
2017-09-03T07:55:53.604Z,1019.96
2017-09-03T07:57:15.454Z,1019.92
2017-09-03T07:58:37.014Z,1019.91
2017-09-03T07:59:59.535Z,1019.89
2017-09-03T08:01:21.715Z,1019.83
2017-09-03T08:02:44.208Z,1019.88
2017-09-03T08:04:06.687Z,1019.87
2017-09-03T08:05:29.276Z,1019.84
2017-09-03T08:06:51.453Z,1019.85
2017-09-03T08:08:13.676Z,1019.83
2017-09-03T08:09:36.131Z,1019.84
2017-09-03T08:10:57.651Z,1019.86
2017-09-03T08:12:19.818Z,1019.9
2017-09-03T08:13:41.998Z,1019.87
2017-09-03T08:15:04.754Z,1019.89
2017-09-03T08:16:27.263Z,1019.9
2017-09-03T08:17:49.127Z,1019.9
2017-09-03T08:19:11.630Z,1019.88
2017-09-03T08:20:34.462Z,1019.9
2017-09-03T08:21:56.646Z,1019.85
2017-09-03T08:23:18.886Z,1019.89
2017-09-03T08:24:41.156Z,1019.84
2017-09-03T08:26:03.321Z,1019.87
2017-09-03T08:27:25.583Z,1019.82
2017-09-03T08:28:47.856Z,1019.83
2017-09-03T08:30:10.276Z,1019.8
2017-09-03T08:31:33.012Z,1019.79
2017-09-03T08:32:55.307Z,1019.73
2017-09-03T08:34:17.483Z,1019.77
2017-09-03T08:35:40.206Z,1019.74
2017-09-03T08:37:02.746Z,1019.68
2017-09-03T08:38:25.016Z,1019.7
2017-09-03T08:39:46.934Z,1019.66
2017-09-03T08:41:09.380Z,1019.65
2017-09-03T08:42:31.849Z,1019.65
2017-09-03T08:43:54.070Z,1019.63
2017-09-03T08:45:15.915Z,1019.6
2017-09-03T08:46:38.097Z,1019.62
2017-09-03T08:48:00.848Z,1019.59
2017-09-03T08:49:23.053Z,1019.56
2017-09-03T08:50:45.202Z,1019.54
2017-09-03T08:52:06.783Z,1019.57
2017-09-03T08:53:29.656Z,1019.52
2017-09-03T08:54:51.493Z,1019.5
2017-09-03T08:56:13.016Z,1019.51
2017-09-03T08:57:34.874Z,1019.44
2017-09-03T08:58:57.776Z,1019.45
2017-09-03T09:00:19.444Z,1019.44
2017-09-03T09:01:41.953Z,1019.51
2017-09-03T09:03:04.143Z,1019.45
2017-09-03T09:04:27.029Z,1019.45
2017-09-03T09:05:49.192Z,1019.46
2017-09-03T09:07:11.133Z,1019.45
2017-09-03T09:08:32.643Z,1019.46
2017-09-03T09:09:55.102Z,1019.45
2017-09-03T09:11:17.603Z,1019.39
2017-09-03T09:12:39.784Z,1019.38
2017-09-03T09:14:01.974Z,1019.34
2017-09-03T09:15:24.384Z,1019.36
2017-09-03T09:16:47.013Z,1019.33
2017-09-03T09:18:09.172Z,1019.33
2017-09-03T09:19:31.355Z,1019.35
2017-09-03T09:20:53.818Z,1019.36
2017-09-03T09:22:15.803Z,1019.4
2017-09-03T09:23:38.302Z,1019.39
2017-09-03T09:25:00.165Z,1019.41
2017-09-03T09:26:21.912Z,1019.44
2017-09-03T09:27:44.404Z,1019.41
2017-09-03T09:29:06.250Z,1019.36
2017-09-03T09:30:28.413Z,1019.35
2017-09-03T09:31:50.957Z,1019.34
2017-09-03T09:33:13.109Z,1019.35
2017-09-03T09:34:35.272Z,1019.35
2017-09-03T09:35:57.416Z,1019.4
2017-09-03T09:37:19.939Z,1019.42
2017-09-03T09:38:42.082Z,1019.47
2017-09-03T09:40:03.293Z,1019.39
2017-09-03T09:41:25.512Z,1019.4
2017-09-03T09:42:47.768Z,1019.43
2017-09-03T09:44:09.965Z,1019.36
2017-09-03T09:45:32.144Z,1019.42
2017-09-03T09:46:54.327Z,1019.38
2017-09-03T09:48:16.413Z,1019.32
2017-09-03T09:49:38.293Z,1019.35
2017-09-03T09:51:00.786Z,1019.35
2017-09-03T09:52:22.308Z,1019.31
2017-09-03T09:53:45.179Z,1019.26
2017-09-03T09:55:07.374Z,1019.22
2017-09-03T09:56:29.555Z,1019.23
2017-09-03T09:57:51.728Z,1019.21
2017-09-03T09:59:14.237Z,1019.2
2017-09-03T10:00:36.089Z,1019.22
2017-09-03T10:01:58.637Z,1019.23
2017-09-03T10:03:20.494Z,1019.19
2017-09-03T10:04:43.290Z,1019.25
2017-09-03T10:06:05.637Z,1019.22
2017-09-03T10:07:26.854Z,1019.24
2017-09-03T10:08:49.355Z,1019.2
2017-09-03T10:10:12.191Z,1019.24
2017-09-03T10:11:34.064Z,1019.25
2017-09-03T10:12:56.656Z,1019.23
2017-09-03T10:14:18.956Z,1019.25
2017-09-03T10:15:41.703Z,1019.25
2017-09-03T10:17:03.930Z,1019.24
2017-09-03T10:18:25.823Z,1019.22
2017-09-03T10:19:48.017Z,1019.21
2017-09-03T10:21:10.273Z,1019.26
2017-09-03T10:22:31.515Z,1019.22
2017-09-03T10:23:53.384Z,1019.21
2017-09-03T10:25:15.654Z,1019.2
2017-09-03T10:26:38.124Z,1019.23
2017-09-03T10:27:59.972Z,1019.25
2017-09-03T10:29:22.174Z,1019.24
2017-09-03T10:30:44.124Z,1019.12
2017-09-03T10:32:06.273Z,1019.16
2017-09-03T10:33:28.452Z,1019.14
2017-09-03T10:34:50.687Z,1019.11
2017-09-03T10:36:12.878Z,1019.11
2017-09-03T10:37:35.916Z,1019.06
2017-09-03T10:38:57.778Z,1019.07
2017-09-03T10:40:20.288Z,1019.1
2017-09-03T10:41:42.185Z,1019.07
2017-09-03T10:43:04.475Z,1019.07
2017-09-03T10:44:26.658Z,1019.08
2017-09-03T10:45:48.619Z,1019.07
2017-09-03T10:47:10.821Z,1019.1
2017-09-03T10:48:33.274Z,1019.09
2017-09-03T10:49:55.465Z,1019.07
2017-09-03T10:51:17.334Z,1019.13
2017-09-03T10:52:39.853Z,1019.11
2017-09-03T10:54:01.741Z,1019.16
2017-09-03T10:55:23.918Z,1019.16
2017-09-03T10:56:46.183Z,1019.16
2017-09-03T10:58:08.685Z,1019.18
2017-09-03T10:59:30.853Z,1019.13
2017-09-03T11:00:52.737Z,1019.12
2017-09-03T11:02:14.894Z,1019.11
2017-09-03T11:03:37.183Z,1019.11
2017-09-03T11:04:59.926Z,1019.02
2017-09-03T11:06:22.437Z,1019.05
2017-09-03T11:07:44.877Z,1019.07
2017-09-03T11:09:07.165Z,1019.05
2017-09-03T11:10:29.936Z,1019.05
2017-09-03T11:11:52.482Z,1019.06
2017-09-03T11:13:15.909Z,1019.04
2017-09-03T11:14:39.285Z,1019.06
2017-09-03T11:16:01.415Z,1019
2017-09-03T11:17:23.884Z,1019.01
2017-09-03T11:18:46.463Z,1018.92
2017-09-03T11:20:08.965Z,1018.92
2017-09-03T11:21:31.793Z,1018.87
2017-09-03T11:22:53.946Z,1018.84
2017-09-03T11:24:15.955Z,1018.86
2017-09-03T11:25:38.438Z,1018.82
2017-09-03T11:27:00.309Z,1018.83
2017-09-03T11:28:22.787Z,1018.8
2017-09-03T11:29:45.038Z,1018.82
2017-09-03T11:31:06.675Z,1018.77
2017-09-03T11:32:28.855Z,1018.79
2017-09-03T11:33:51.004Z,1018.78
2017-09-03T11:35:12.958Z,1018.77
2017-09-03T11:36:35.178Z,1018.76
2017-09-03T11:37:57.643Z,1018.72
2017-09-03T11:39:20.235Z,1018.68
2017-09-03T11:40:42.415Z,1018.64
2017-09-03T11:42:05.224Z,1018.59
2017-09-03T11:43:27.725Z,1018.64
2017-09-03T11:44:49.896Z,1018.62
2017-09-03T11:46:12.118Z,1018.6
2017-09-03T11:47:34.282Z,1018.57
2017-09-03T11:48:56.385Z,1018.57
2017-09-03T11:50:18.574Z,1018.59
2017-09-03T11:51:40.419Z,1018.55
2017-09-03T11:53:02.394Z,1018.57
2017-09-03T11:54:25.254Z,1018.57
2017-09-03T11:55:47.732Z,1018.52
2017-09-03T11:57:09.571Z,1018.52
2017-09-03T11:58:30.814Z,1018.5
2017-09-03T11:59:52.985Z,1018.52
2017-09-03T12:01:14.960Z,1018.56
2017-09-03T12:02:37.233Z,1018.51
2017-09-03T12:03:59.414Z,1018.53
2017-09-03T12:05:22.050Z,1018.47
2017-09-03T12:06:43.924Z,1018.46
2017-09-03T12:08:06.094Z,1018.43
2017-09-03T12:09:28.280Z,1018.44
2017-09-03T12:10:50.433Z,1018.43
2017-09-03T12:12:12.263Z,1018.42
2017-09-03T12:13:34.799Z,1018.43
2017-09-03T12:14:56.336Z,1018.37
2017-09-03T12:16:19.155Z,1018.39
2017-09-03T12:17:40.755Z,1018.38
2017-09-03T12:19:03.369Z,1018.36
2017-09-03T12:20:25.843Z,1018.36
2017-09-03T12:21:47.934Z,1018.4
2017-09-03T12:23:10.130Z,1018.38
2017-09-03T12:24:31.972Z,1018.34
2017-09-03T12:25:53.172Z,1018.3
2017-09-03T12:27:15.372Z,1018.29
2017-09-03T12:28:36.565Z,1018.32
2017-09-03T12:29:59.172Z,1018.28
2017-09-03T12:31:21.223Z,1018.28
2017-09-03T12:32:44.341Z,1018.18
2017-09-03T12:34:06.540Z,1018.2
2017-09-03T12:35:28.392Z,1018.18
2017-09-03T12:36:49.590Z,1018.19
2017-09-03T12:38:11.713Z,1018.12
2017-09-03T12:39:34.213Z,1018.14
2017-09-03T12:40:56.362Z,1018.12
2017-09-03T12:42:17.563Z,1018.18
2017-09-03T12:43:40.055Z,1018.15
2017-09-03T12:45:02.542Z,1018.21
2017-09-03T12:46:24.417Z,1018.16
2017-09-03T12:47:46.244Z,1018.18
2017-09-03T12:49:08.783Z,1018.15
2017-09-03T12:50:30.633Z,1018.15
2017-09-03T12:51:52.846Z,1018.14
2017-09-03T12:53:15.192Z,1018.15
2017-09-03T12:54:38.015Z,1018.07
2017-09-03T12:56:00.207Z,1018.06
2017-09-03T12:57:22.351Z,1018.09
2017-09-03T12:58:44.541Z,1018
2017-09-03T13:00:06.732Z,1017.98
2017-09-03T13:01:28.922Z,1017.96
2017-09-03T13:02:51.116Z,1017.96
2017-09-03T13:04:13.392Z,1017.9
2017-09-03T13:05:35.925Z,1017.92
2017-09-03T13:06:58.208Z,1017.92
2017-09-03T13:08:20.687Z,1017.88
2017-09-03T13:09:43.236Z,1017.89
2017-09-03T13:11:05.838Z,1017.84
2017-09-03T13:12:27.713Z,1017.86
2017-09-03T13:13:49.883Z,1017.81
2017-09-03T13:15:11.746Z,1017.78
2017-09-03T13:16:34.725Z,1017.76
2017-09-03T13:17:56.587Z,1017.78
2017-09-03T13:19:18.860Z,1017.78
2017-09-03T13:20:40.108Z,1017.76
2017-09-03T13:22:02.940Z,1017.77
2017-09-03T13:23:25.135Z,1017.76
2017-09-03T13:24:47.069Z,1017.81
2017-09-03T13:26:09.583Z,1017.83
2017-09-03T13:27:32.441Z,1017.79
2017-09-03T13:28:54.959Z,1017.79
2017-09-03T13:30:17.453Z,1017.7
2017-09-03T13:31:39.631Z,1017.69
2017-09-03T13:33:02.109Z,1017.67
2017-09-03T13:34:23.961Z,1017.62
2017-09-03T13:35:45.886Z,1017.6
2017-09-03T13:37:08.388Z,1017.61
2017-09-03T13:38:30.861Z,1017.56
2017-09-03T13:39:53.065Z,1017.56
2017-09-03T13:41:15.583Z,1017.55
2017-09-03T13:42:38.125Z,1017.55
2017-09-03T13:44:00.619Z,1017.57
2017-09-03T13:45:22.802Z,1017.54
2017-09-03T13:46:44.718Z,1017.56
2017-09-03T13:48:06.883Z,1017.52
2017-09-03T13:49:29.381Z,1017.53
2017-09-03T13:50:51.927Z,1017.52
2017-09-03T13:52:14.531Z,1017.51
2017-09-03T13:53:36.428Z,1017.48
2017-09-03T13:54:58.532Z,1017.5
2017-09-03T13:56:20.686Z,1017.49
2017-09-03T13:57:42.848Z,1017.49
2017-09-03T13:59:05.035Z,1017.47
2017-09-03T14:00:27.817Z,1017.46
2017-09-03T14:01:49.996Z,1017.41
2017-09-03T14:03:12.225Z,1017.42
2017-09-03T14:04:34.722Z,1017.41
2017-09-03T14:05:57.550Z,1017.41
2017-09-03T14:07:19.471Z,1017.39
2017-09-03T14:08:41.982Z,1017.38
2017-09-03T14:10:03.502Z,1017.38
2017-09-03T14:11:25.955Z,1017.33
2017-09-03T14:12:48.126Z,1017.34
2017-09-03T14:14:10.367Z,1017.35
2017-09-03T14:15:32.981Z,1017.39
2017-09-03T14:16:55.090Z,1017.41
2017-09-03T14:18:17.322Z,1017.39
2017-09-03T14:19:39.574Z,1017.44
2017-09-03T14:21:01.091Z,1017.4
2017-09-03T14:22:23.221Z,1017.35
2017-09-03T14:23:45.536Z,1017.35
2017-09-03T14:25:07.713Z,1017.35
2017-09-03T14:26:30.233Z,1017.34
2017-09-03T14:27:53.047Z,1017.31
2017-09-03T14:29:15.225Z,1017.28
2017-09-03T14:30:37.433Z,1017.28
2017-09-03T14:31:59.582Z,1017.26
2017-09-03T14:33:21.670Z,1017.26
2017-09-03T14:34:43.195Z,1017.24
2017-09-03T14:36:05.039Z,1017.22
2017-09-03T14:37:27.232Z,1017.22
2017-09-03T14:38:49.062Z,1017.17
2017-09-03T14:40:10.916Z,1017.19
2017-09-03T14:41:32.773Z,1017.17
2017-09-03T14:42:55.367Z,1017.16
2017-09-03T14:44:18.142Z,1017.17
2017-09-03T14:45:40.056Z,1017.1
2017-09-03T14:47:02.585Z,1017.1
2017-09-03T14:48:24.777Z,1017.1
2017-09-03T14:49:47.023Z,1017.12
2017-09-03T14:51:09.214Z,1017.13
2017-09-03T14:52:31.417Z,1017.12
2017-09-03T14:53:54.082Z,1017.07
2017-09-03T14:55:15.955Z,1017.09
2017-09-03T14:56:37.736Z,1017.1
2017-09-03T14:57:59.276Z,1017.05
2017-09-03T14:59:21.473Z,1017.06
2017-09-03T15:00:43.324Z,1017.11
2017-09-03T15:02:05.212Z,1017.08
2017-09-03T15:03:27.053Z,1017.08
2017-09-03T15:04:49.243Z,1017.06
2017-09-03T15:06:11.511Z,1017.09
2017-09-03T15:07:33.685Z,1017.04
2017-09-03T15:08:55.886Z,1017.06
2017-09-03T15:10:17.752Z,1017.11
2017-09-03T15:11:40.195Z,1017.08
2017-09-03T15:13:02.034Z,1017.1
2017-09-03T15:14:24.207Z,1017.07
2017-09-03T15:15:46.724Z,1017.05
2017-09-03T15:17:09.343Z,1017
2017-09-03T15:18:31.917Z,1017.03
2017-09-03T15:19:54.105Z,1017.01
2017-09-03T15:21:16.304Z,1017.03
2017-09-03T15:22:38.793Z,1017.01
2017-09-03T15:24:00.652Z,1017.07
2017-09-03T15:25:22.843Z,1017.02
2017-09-03T15:26:45.135Z,1017.03
2017-09-03T15:28:07.247Z,1017.03
2017-09-03T15:29:29.108Z,1017.01
2017-09-03T15:30:51.333Z,1017.03
2017-09-03T15:32:13.518Z,1017.03
2017-09-03T15:33:35.703Z,1017.01
2017-09-03T15:34:57.587Z,1017.01
2017-09-03T15:36:19.814Z,1016.99
2017-09-03T15:37:41.683Z,1016.96
2017-09-03T15:39:03.783Z,1016.89
2017-09-03T15:40:26.297Z,1016.94
2017-09-03T15:41:48.490Z,1016.88
2017-09-03T15:43:10.353Z,1016.86
2017-09-03T15:44:33.113Z,1016.84
2017-09-03T15:45:55.623Z,1016.81
2017-09-03T15:47:17.498Z,1016.81
2017-09-03T15:48:39.367Z,1016.78
2017-09-03T15:50:02.126Z,1016.79
2017-09-03T15:51:24.401Z,1016.8
2017-09-03T15:52:46.414Z,1016.84
2017-09-03T15:54:08.899Z,1016.8
2017-09-03T15:55:31.511Z,1016.79
2017-09-03T15:56:53.695Z,1016.82
2017-09-03T15:58:15.874Z,1016.78
2017-09-03T15:59:38.073Z,1016.81
2017-09-03T16:01:00.984Z,1016.81
2017-09-03T16:02:23.203Z,1016.76
2017-09-03T16:03:45.705Z,1016.76
2017-09-03T16:05:07.889Z,1016.74
2017-09-03T16:06:29.989Z,1016.73
2017-09-03T16:07:52.201Z,1016.74
2017-09-03T16:09:14.210Z,1016.73
2017-09-03T16:10:36.410Z,1016.71
2017-09-03T16:11:58.873Z,1016.71
2017-09-03T16:13:21.430Z,1016.73
2017-09-03T16:14:43.626Z,1016.72
2017-09-03T16:16:05.822Z,1016.77
2017-09-03T16:17:28.333Z,1016.71
2017-09-03T16:18:50.517Z,1016.8
2017-09-03T16:20:13.064Z,1016.79
2017-09-03T16:21:35.590Z,1016.77
2017-09-03T16:22:57.850Z,1016.79
2017-09-03T16:24:20.366Z,1016.82
2017-09-03T16:25:43.217Z,1016.77
2017-09-03T16:27:05.744Z,1016.79
2017-09-03T16:28:27.565Z,1016.82
2017-09-03T16:29:49.432Z,1016.82
2017-09-03T16:31:11.283Z,1016.81
2017-09-03T16:32:33.875Z,1016.76
2017-09-03T16:33:55.658Z,1016.76
2017-09-03T16:35:17.518Z,1016.82
2017-09-03T16:36:39.030Z,1016.76